createdAt,value
2019-02-15T00:02:12.346Z,22.32
2019-02-15T00:04:40.773Z,22.65
2019-02-15T00:07:09.219Z,18.07
2019-02-15T00:09:37.663Z,19.70
2019-02-15T00:12:06.119Z,23.45
2019-02-15T00:14:45.619Z,21.27
2019-02-15T00:17:15.698Z,18.85
2019-02-15T00:19:45.835Z,24.95
2019-02-15T00:22:14.294Z,19.67
2019-02-15T00:24:42.780Z,21.00
2019-02-15T00:27:11.399Z,23.15
2019-02-15T00:29:39.814Z,24.87
2019-02-15T00:32:08.281Z,18.75
2019-02-15T00:34:36.708Z,23.73
2019-02-15T00:37:05.159Z,24.95
2019-02-15T00:39:33.594Z,20.52
2019-02-15T00:42:02.038Z,25.37
2019-02-15T00:44:30.477Z,23.70
2019-02-15T00:47:00.563Z,22.10
2019-02-15T00:49:30.634Z,19.57
2019-02-15T00:52:03.492Z,23.35
2019-02-15T00:54:50.186Z,22.07
2019-02-15T00:57:29.239Z,24.32
2019-02-15T01:00:08.362Z,23.52
2019-02-15T01:02:41.605Z,23.65
2019-02-15T01:05:17.847Z,23.00
2019-02-15T01:07:47.946Z,22.55
2019-02-15T01:10:18.017Z,18.98
2019-02-15T01:12:57.179Z,20.02
2019-02-15T01:15:25.668Z,23.87
2019-02-15T01:17:54.118Z,26.12
2019-02-15T01:20:22.554Z,19.02
2019-02-15T01:22:50.975Z,22.77
2019-02-15T01:25:19.423Z,23.07
2019-02-15T01:27:49.488Z,20.92
2019-02-15T01:30:25.397Z,20.20
2019-02-15T01:32:55.456Z,24.63
2019-02-15T01:35:25.547Z,25.30
2019-02-15T01:38:11.816Z,19.65
2019-02-15T01:40:53.823Z,22.85
2019-02-15T01:43:26.550Z,20.45
2019-02-15T01:45:59.410Z,18.23
2019-02-15T01:48:27.850Z,27.58
2019-02-15T01:50:56.313Z,24.85
2019-02-15T01:53:24.743Z,24.98
2019-02-15T01:55:53.188Z,23.98
2019-02-15T01:58:21.623Z,27.73
2019-02-15T02:00:50.077Z,22.67
2019-02-15T02:03:18.502Z,19.40
2019-02-15T02:05:47.023Z,23.95
2019-02-15T02:08:17.086Z,23.85
2019-02-15T02:10:45.599Z,20.68
2019-02-15T02:13:14.038Z,32.00
2019-02-15T02:15:42.506Z,20.17
2019-02-15T02:18:10.946Z,21.40
2019-02-15T02:20:39.374Z,22.45
2019-02-15T02:23:07.827Z,22.60
2019-02-15T02:25:36.447Z,20.62
2019-02-15T02:28:04.886Z,18.50
2019-02-15T02:30:33.397Z,23.55
2019-02-15T02:33:01.848Z,25.37
2019-02-15T02:35:30.264Z,21.52
2019-02-15T02:37:58.718Z,18.25
2019-02-15T02:40:27.163Z,19.65
2019-02-15T02:42:55.669Z,22.35
2019-02-15T02:45:24.110Z,22.13
2019-02-15T02:47:52.571Z,25.65
2019-02-15T02:50:20.994Z,25.70
2019-02-15T02:52:49.444Z,19.60
2019-02-15T02:55:17.899Z,22.42
2019-02-15T02:57:46.344Z,24.52
2019-02-15T03:00:14.841Z,22.32
2019-02-15T03:02:43.351Z,19.60
2019-02-15T03:05:11.775Z,25.57
2019-02-15T03:07:41.758Z,20.27
2019-02-15T03:10:10.336Z,19.17
2019-02-15T03:12:38.807Z,19.87
2019-02-15T03:15:08.044Z,23.32
2019-02-15T03:17:36.490Z,21.15
2019-02-15T03:20:06.776Z,21.02
2019-02-15T03:22:35.239Z,22.20
2019-02-15T03:25:03.834Z,19.40
2019-02-15T03:27:32.284Z,25.43
2019-02-15T03:30:00.761Z,24.00
2019-02-15T03:32:29.245Z,23.57
2019-02-15T03:34:57.704Z,22.58
2019-02-15T03:37:27.776Z,19.87
2019-02-15T03:39:57.894Z,20.77
2019-02-15T03:42:26.335Z,20.77
2019-02-15T03:44:54.791Z,18.25
2019-02-15T03:47:24.218Z,18.25
2019-02-15T03:49:52.669Z,17.00
2019-02-15T03:52:21.091Z,17.75
2019-02-15T03:54:49.547Z,18.67
2019-02-15T03:57:18.026Z,20.72
2019-02-15T03:59:46.534Z,19.65
2019-02-15T04:02:15.027Z,20.85
2019-02-15T04:04:43.487Z,17.57
2019-02-15T04:07:11.911Z,18.92
2019-02-15T04:09:40.349Z,22.10
2019-02-15T04:12:08.795Z,17.85
2019-02-15T04:14:37.254Z,25.57
2019-02-15T04:17:05.677Z,20.08
2019-02-15T04:19:34.094Z,17.05
2019-02-15T04:22:02.544Z,16.73
2019-02-15T04:24:30.980Z,18.30
2019-02-15T04:26:59.709Z,28.83
2019-02-15T04:29:28.127Z,20.15
2019-02-15T04:31:56.571Z,21.93
2019-02-15T04:34:24.997Z,19.50
2019-02-15T04:36:53.432Z,24.00
2019-02-15T04:39:21.858Z,21.40
2019-02-15T04:41:50.323Z,21.50
2019-02-15T04:44:18.812Z,19.32
2019-02-15T04:46:47.331Z,20.02
2019-02-15T04:49:15.762Z,19.62
2019-02-15T04:51:44.206Z,21.25
2019-02-15T04:54:12.631Z,22.15
2019-02-15T04:56:41.071Z,18.60
2019-02-15T04:59:09.506Z,19.85
2019-02-15T05:01:37.951Z,15.28
2019-02-15T05:04:06.372Z,25.90
2019-02-15T05:06:34.815Z,25.12
2019-02-15T05:09:04.417Z,18.70
2019-02-15T05:11:32.856Z,19.87
2019-02-15T05:14:01.400Z,21.15
2019-02-15T05:16:29.838Z,21.35
2019-02-15T05:18:58.282Z,19.07
2019-02-15T05:21:26.701Z,22.70
2019-02-15T05:23:55.152Z,24.57
2019-02-15T05:26:23.575Z,17.82
2019-02-15T05:28:52.025Z,17.32
2019-02-15T05:31:20.442Z,21.50
2019-02-15T05:33:48.899Z,21.33
2019-02-15T05:36:17.323Z,19.62
2019-02-15T05:38:45.770Z,19.87
2019-02-15T05:41:14.383Z,16.02
2019-02-15T05:43:42.832Z,17.45
2019-02-15T05:46:11.248Z,20.15
2019-02-15T05:48:39.701Z,17.32
2019-02-15T05:51:08.125Z,26.90
2019-02-15T05:53:36.564Z,15.45
2019-02-15T05:56:05.005Z,23.30
2019-02-15T05:58:33.468Z,19.52
2019-02-15T06:01:01.967Z,21.33
2019-02-15T06:03:30.419Z,17.02
2019-02-15T06:05:59.779Z,19.10
2019-02-15T06:08:28.229Z,19.20
2019-02-15T06:11:06.678Z,17.87
2019-02-15T06:13:26.828Z,21.30
2019-02-15T06:15:55.250Z,21.45
2019-02-15T06:18:23.683Z,23.27
2019-02-15T06:20:52.130Z,18.82
2019-02-15T06:23:20.579Z,20.85
2019-02-15T06:25:49.035Z,18.65
2019-02-15T06:28:17.466Z,19.37
2019-02-15T06:30:45.924Z,18.85
2019-02-15T06:33:14.416Z,18.87
2019-02-15T06:35:42.871Z,19.60
2019-02-15T06:38:11.314Z,18.65
2019-02-15T06:40:39.789Z,22.00
2019-02-15T06:43:08.215Z,20.23
2019-02-15T06:45:36.675Z,23.27
2019-02-15T06:48:05.098Z,20.92
2019-02-15T06:50:33.572Z,20.45
2019-02-15T06:53:02.006Z,20.88
2019-02-15T06:55:30.464Z,20.32
2019-02-15T06:57:58.983Z,17.42
2019-02-15T07:00:45.648Z,22.30
2019-02-15T07:03:25.018Z,20.45
2019-02-15T07:05:53.453Z,22.00
2019-02-15T07:08:21.883Z,19.20
2019-02-15T07:10:50.335Z,21.05
2019-02-15T07:13:18.757Z,26.68
2019-02-15T07:15:47.188Z,26.55
2019-02-15T07:18:15.719Z,24.00
2019-02-15T07:20:44.173Z,29.42
2019-02-15T07:23:12.638Z,26.10
2019-02-15T07:25:41.075Z,31.85
2019-02-15T07:28:09.509Z,37.38
2019-02-15T07:30:37.944Z,24.25
2019-02-15T07:33:06.464Z,30.68
2019-02-15T07:35:34.991Z,32.83
2019-02-15T07:38:03.459Z,28.27
2019-02-15T07:40:31.880Z,31.27
2019-02-15T07:43:00.477Z,36.40
2019-02-15T07:45:28.907Z,38.25
2019-02-15T07:47:58.680Z,45.55
2019-02-15T07:50:27.278Z,32.23
2019-02-15T07:52:55.723Z,29.85
2019-02-15T07:55:24.337Z,32.93
2019-02-15T07:57:52.787Z,30.62
2019-02-15T08:00:21.314Z,37.28
2019-02-15T08:02:49.774Z,30.62
2019-02-15T08:05:18.268Z,36.10
2019-02-15T08:07:46.724Z,37.35
2019-02-15T08:10:15.159Z,34.78
2019-02-15T08:12:43.594Z,33.38
2019-02-15T08:15:12.203Z,37.78
2019-02-15T08:17:40.675Z,35.50
2019-02-15T08:20:11.142Z,34.48
2019-02-15T08:22:39.573Z,36.30
2019-02-15T08:25:09.156Z,32.00
2019-02-15T08:27:37.589Z,40.95
2019-02-15T08:30:09.101Z,29.05
2019-02-15T08:32:37.526Z,37.28
2019-02-15T08:35:08.326Z,31.73
2019-02-15T08:37:36.771Z,36.55
2019-02-15T08:40:08.167Z,34.70
2019-02-15T08:42:36.666Z,33.58
2019-02-15T08:45:08.367Z,34.60
2019-02-15T08:47:36.882Z,35.70
2019-02-15T08:50:07.983Z,33.10
2019-02-15T08:52:36.398Z,36.33
2019-02-15T08:55:07.504Z,28.80
2019-02-15T08:57:35.990Z,27.82
2019-02-15T09:00:06.538Z,28.98
2019-02-15T09:02:34.979Z,28.57
2019-02-15T09:05:03.505Z,25.43
2019-02-15T09:07:32.036Z,24.92
2019-02-15T09:10:00.487Z,22.60
2019-02-15T09:12:28.907Z,28.67
2019-02-15T09:14:57.345Z,27.42
2019-02-15T09:17:27.296Z,21.75
2019-02-15T09:19:56.090Z,27.50
2019-02-15T09:22:24.535Z,32.78
2019-02-15T09:24:53.039Z,24.82
2019-02-15T09:27:25.616Z,24.63
2019-02-15T09:29:54.046Z,26.62
2019-02-15T09:32:22.505Z,31.82
2019-02-15T09:34:50.930Z,24.40
2019-02-15T09:37:19.391Z,27.40
2019-02-15T09:39:47.805Z,23.83
2019-02-15T09:42:17.792Z,19.98
2019-02-15T09:44:46.232Z,26.33
2019-02-15T09:47:14.680Z,21.05
2019-02-15T09:49:44.657Z,24.43
2019-02-15T09:52:13.310Z,28.57
2019-02-15T09:54:41.734Z,33.70
2019-02-15T09:57:10.184Z,23.93
2019-02-15T09:59:38.615Z,26.13
2019-02-15T10:02:07.202Z,20.97
2019-02-15T10:04:35.676Z,29.27
2019-02-15T10:07:04.163Z,21.53
2019-02-15T10:09:32.618Z,20.03
2019-02-15T10:12:01.084Z,23.53
2019-02-15T10:14:29.528Z,14.77
2019-02-15T10:16:57.977Z,16.40
2019-02-15T10:19:26.430Z,17.37
2019-02-15T10:21:54.881Z,10.10
2019-02-15T10:24:23.383Z,15.40
2019-02-15T10:26:52.822Z,11.63
2019-02-15T10:29:21.283Z,17.97
2019-02-15T10:31:49.711Z,13.00
2019-02-15T10:34:18.161Z,7.30
2019-02-15T10:36:46.606Z,7.83
2019-02-15T10:39:15.067Z,4.50
2019-02-15T10:41:43.492Z,7.00
2019-02-15T10:44:11.954Z,4.97
2019-02-15T10:46:40.444Z,7.87
2019-02-15T10:49:08.891Z,6.30
2019-02-15T10:51:37.334Z,6.27
2019-02-15T10:54:05.799Z,5.07
2019-02-15T10:56:34.276Z,6.77
2019-02-15T10:59:02.720Z,6.00
2019-02-15T11:01:31.192Z,3.60
2019-02-15T11:03:59.626Z,6.00
2019-02-15T11:06:28.436Z,5.70
2019-02-15T11:08:58.405Z,5.93
2019-02-15T11:11:26.844Z,5.87
2019-02-15T11:13:55.331Z,5.90
2019-02-15T11:16:23.777Z,6.50
2019-02-15T11:18:52.191Z,6.07
2019-02-15T11:21:20.651Z,5.67
2019-02-15T11:23:49.071Z,4.90
2019-02-15T11:26:24.573Z,6.80
2019-02-15T11:28:47.667Z,3.80
2019-02-15T11:31:17.000Z,5.90
2019-02-15T11:33:45.736Z,7.40
2019-02-15T11:36:14.183Z,7.67
2019-02-15T11:38:42.608Z,5.53
2019-02-15T11:41:11.551Z,5.47
2019-02-15T11:43:40.005Z,5.03
2019-02-15T11:46:08.451Z,8.53
2019-02-15T11:48:36.911Z,8.67
2019-02-15T11:51:05.545Z,8.60
2019-02-15T11:53:33.956Z,6.23
2019-02-15T11:56:02.378Z,8.10
2019-02-15T11:58:30.834Z,4.90
2019-02-15T12:00:59.278Z,6.53
2019-02-15T12:03:27.717Z,5.63
2019-02-15T12:05:56.225Z,4.93
2019-02-15T12:08:24.695Z,13.23
2019-02-15T12:10:53.138Z,5.73
2019-02-15T12:13:21.588Z,5.90
2019-02-15T12:15:50.023Z,7.30
2019-02-15T12:18:18.459Z,4.80
2019-02-15T12:20:46.895Z,8.77
2019-02-15T12:23:15.374Z,4.60
2019-02-15T12:25:43.828Z,6.77
2019-02-15T12:28:12.263Z,6.30
2019-02-15T12:30:40.746Z,5.53
2019-02-15T12:33:09.195Z,6.47
2019-02-15T12:35:37.611Z,5.77
2019-02-15T12:38:06.165Z,4.30
2019-02-15T12:40:34.745Z,7.30
2019-02-15T12:43:03.207Z,7.90
2019-02-15T12:45:31.636Z,6.27
2019-02-15T12:48:00.090Z,9.73
2019-02-15T12:50:28.538Z,6.30
2019-02-15T12:52:57.055Z,10.50
2019-02-15T12:55:25.483Z,6.80
2019-02-15T12:57:53.928Z,9.80
2019-02-15T13:00:22.415Z,5.20
2019-02-15T13:02:50.843Z,5.20
2019-02-15T13:05:19.310Z,14.57
2019-02-15T13:07:47.770Z,6.77
2019-02-15T13:10:21.022Z,6.33
2019-02-15T13:12:49.467Z,9.20
2019-02-15T13:15:17.902Z,5.53
2019-02-15T13:17:46.312Z,6.97
2019-02-15T13:20:14.757Z,9.10
2019-02-15T13:22:43.199Z,7.47
2019-02-15T13:25:11.952Z,8.40
2019-02-15T13:27:40.399Z,5.57
2019-02-15T13:30:16.239Z,6.70
2019-02-15T13:32:44.734Z,8.03
2019-02-15T13:35:16.507Z,8.90
2019-02-15T13:37:44.931Z,7.00
2019-02-15T13:40:13.374Z,8.10
2019-02-15T13:42:41.867Z,7.67
2019-02-15T13:45:12.362Z,8.03
2019-02-15T13:47:40.782Z,9.73
2019-02-15T13:50:12.038Z,9.27
2019-02-15T13:52:40.475Z,8.30
2019-02-15T13:55:10.178Z,8.47
2019-02-15T13:57:38.751Z,7.07
2019-02-15T14:00:10.193Z,8.80
2019-02-15T14:02:38.611Z,11.27
2019-02-15T14:05:09.747Z,8.53
2019-02-15T14:07:38.362Z,8.03
2019-02-15T14:10:11.463Z,10.97
2019-02-15T14:12:40.084Z,10.93
2019-02-15T14:15:11.172Z,8.43
2019-02-15T14:17:44.863Z,8.00
2019-02-15T14:20:13.965Z,9.43
2019-02-15T14:22:42.407Z,9.13
2019-02-15T14:25:12.191Z,14.07
2019-02-15T14:27:40.633Z,11.20
2019-02-15T14:30:11.099Z,12.63
2019-02-15T14:32:39.719Z,10.50
2019-02-15T14:35:09.991Z,12.90
2019-02-15T14:37:38.513Z,12.30
2019-02-15T14:40:09.488Z,10.50
2019-02-15T14:42:37.934Z,13.60
2019-02-15T14:45:08.611Z,7.40
2019-02-15T14:47:37.055Z,10.43
2019-02-15T14:50:07.422Z,8.27
2019-02-15T14:52:35.899Z,10.10
2019-02-15T14:55:05.754Z,8.00
2019-02-15T14:57:34.220Z,9.97
2019-02-15T15:00:02.825Z,11.90
2019-02-15T15:02:31.427Z,10.43
2019-02-15T15:04:59.899Z,9.17
2019-02-15T15:07:28.333Z,10.40
2019-02-15T15:09:56.775Z,9.67
2019-02-15T15:12:25.289Z,13.37
2019-02-15T15:14:53.755Z,11.00
2019-02-15T15:17:22.197Z,8.43
2019-02-15T15:19:50.643Z,13.73
2019-02-15T15:22:19.062Z,10.93
2019-02-15T15:24:47.610Z,11.27
2019-02-15T15:27:17.696Z,8.10
2019-02-15T15:29:46.163Z,18.03
2019-02-15T15:32:14.650Z,10.97
2019-02-15T15:34:43.127Z,8.63
2019-02-15T15:39:40.464Z,12.10
2019-02-15T15:42:08.911Z,9.83
2019-02-15T15:44:37.382Z,8.77
2019-02-15T15:47:06.983Z,11.37
2019-02-15T15:49:35.419Z,9.43
2019-02-15T15:52:03.877Z,9.70
2019-02-15T15:54:32.319Z,10.53
2019-02-15T15:57:00.754Z,11.87
2019-02-15T15:59:29.174Z,21.80
2019-02-15T16:01:57.623Z,12.73
2019-02-15T16:04:26.055Z,12.10
2019-02-15T16:06:54.499Z,8.50
2019-02-15T16:09:22.996Z,12.00
2019-02-15T16:11:51.450Z,9.70
2019-02-15T16:14:19.903Z,9.30
2019-02-15T16:16:49.896Z,7.60
2019-02-15T16:19:18.321Z,8.73
2019-02-15T16:21:46.764Z,9.00
2019-02-15T16:24:15.187Z,10.00
2019-02-15T16:26:43.712Z,8.87
2019-02-15T16:29:13.921Z,11.43
2019-02-15T16:31:42.291Z,8.17
2019-02-15T16:34:10.714Z,11.23
2019-02-15T16:36:39.159Z,7.47
2019-02-15T16:39:07.850Z,9.40
2019-02-15T16:41:36.369Z,8.03
2019-02-15T16:44:04.948Z,13.60
2019-02-15T16:46:33.389Z,13.58
2019-02-15T16:49:01.918Z,9.93
2019-02-15T16:51:30.426Z,6.72
2019-02-15T16:53:58.879Z,10.05
2019-02-15T16:56:27.348Z,6.45
2019-02-15T16:58:55.777Z,6.62
2019-02-15T17:01:24.207Z,7.00
2019-02-15T17:03:52.656Z,7.10
2019-02-15T17:06:21.085Z,9.20
2019-02-15T17:08:49.513Z,7.17
2019-02-15T17:11:17.942Z,9.05
2019-02-15T17:13:46.394Z,7.08
2019-02-15T17:16:14.815Z,7.42
2019-02-15T17:18:51.518Z,7.70
2019-02-15T17:21:13.549Z,8.50
2019-02-15T17:23:42.015Z,6.65
2019-02-15T17:26:10.456Z,12.55
2019-02-15T17:28:38.916Z,12.07
2019-02-15T17:31:07.329Z,8.75
2019-02-15T17:33:35.781Z,7.10
2019-02-15T17:36:04.208Z,6.58
2019-02-15T17:38:32.657Z,7.80
2019-02-15T17:41:01.085Z,6.65
2019-02-15T17:43:29.527Z,7.50
2019-02-15T17:45:57.948Z,8.53
2019-02-15T17:48:26.399Z,9.98
2019-02-15T17:50:54.939Z,8.53
2019-02-15T17:53:23.363Z,10.85
2019-02-15T17:55:51.886Z,8.00
2019-02-15T17:58:20.291Z,8.63
2019-02-15T18:00:48.818Z,8.00
2019-02-15T18:03:17.265Z,7.53
2019-02-15T18:05:45.706Z,8.33
2019-02-15T18:08:14.123Z,13.53
2019-02-15T18:10:42.611Z,11.30
2019-02-15T18:13:12.676Z,11.55
2019-02-15T18:15:41.130Z,18.92
2019-02-15T18:18:09.555Z,12.45
2019-02-15T18:20:38.009Z,13.22
2019-02-15T18:23:06.430Z,16.55
2019-02-15T18:25:34.882Z,14.85
2019-02-15T18:28:03.324Z,12.68
2019-02-15T18:30:31.755Z,13.32
2019-02-15T18:33:00.194Z,14.75
2019-02-15T18:35:28.643Z,15.65
2019-02-15T18:37:57.157Z,24.23
2019-02-15T18:40:25.627Z,20.32
2019-02-15T18:42:54.063Z,16.75
2019-02-15T18:45:22.737Z,20.15
2019-02-15T18:47:51.349Z,21.25
2019-02-15T18:50:19.792Z,22.45
2019-02-15T18:52:48.321Z,16.75
2019-02-15T18:55:16.750Z,16.02
2019-02-15T18:57:45.202Z,14.40
2019-02-15T19:00:18.945Z,14.75
2019-02-15T19:02:49.358Z,12.55
2019-02-15T19:05:17.780Z,16.17
2019-02-15T19:07:46.220Z,14.53
2019-02-15T19:10:22.601Z,19.42
2019-02-15T19:12:52.093Z,19.70
2019-02-15T19:15:20.514Z,17.10
2019-02-15T19:17:49.043Z,18.60
2019-02-15T19:20:17.938Z,18.95
2019-02-15T19:22:46.736Z,19.20
2019-02-15T19:25:17.866Z,17.75
2019-02-15T19:27:46.352Z,16.60
2019-02-15T19:30:23.727Z,25.23
2019-02-15T19:32:52.158Z,13.60
2019-02-15T19:35:20.629Z,20.45
2019-02-15T19:37:49.143Z,18.98
2019-02-15T19:40:19.427Z,15.80
2019-02-15T19:42:49.817Z,20.85
2019-02-15T19:45:18.371Z,21.12
2019-02-15T19:47:47.107Z,21.35
2019-02-15T19:50:17.603Z,27.77
2019-02-15T19:52:48.080Z,29.65
2019-02-15T19:55:16.710Z,27.52
2019-02-15T19:57:45.141Z,30.35
2019-02-15T20:00:18.323Z,30.62
2019-02-15T20:02:47.094Z,33.25
2019-02-15T20:05:15.917Z,33.55
2019-02-15T20:07:44.344Z,31.48
2019-02-15T20:10:19.104Z,38.98
2019-02-15T20:12:47.555Z,31.57
2019-02-15T20:15:16.108Z,31.33
2019-02-15T20:17:44.600Z,29.20
2019-02-15T20:20:14.507Z,30.75
2019-02-15T20:22:42.990Z,36.17
2019-02-15T20:25:12.614Z,34.08
2019-02-15T20:27:41.066Z,42.78
2019-02-15T20:30:14.938Z,37.75
2019-02-15T20:32:43.455Z,43.98
2019-02-15T20:35:13.594Z,38.38
2019-02-15T20:37:42.287Z,45.15
2019-02-15T20:40:12.061Z,38.70
2019-02-15T20:42:40.495Z,41.85
2019-02-15T20:45:17.556Z,45.30
2019-02-15T20:47:46.016Z,39.55
2019-02-15T20:50:15.091Z,35.25
2019-02-15T20:52:43.534Z,39.10
2019-02-15T20:55:14.199Z,33.15
2019-02-15T20:57:42.675Z,32.50
2019-02-15T21:00:16.966Z,32.83
2019-02-15T21:02:45.525Z,29.87
2019-02-15T21:05:14.030Z,34.63
2019-02-15T21:07:42.482Z,34.92
2019-02-15T21:10:12.282Z,33.60
2019-02-15T21:12:41.015Z,38.25
2019-02-15T21:15:11.763Z,39.48
2019-02-15T21:17:40.219Z,29.57
2019-02-15T21:20:11.387Z,31.33
2019-02-15T21:22:39.892Z,31.27
2019-02-15T21:25:17.948Z,31.12
2019-02-15T21:27:46.392Z,25.17
2019-02-15T21:30:19.178Z,32.38
2019-02-15T21:32:47.735Z,29.45
2019-02-15T21:35:16.192Z,30.10
2019-02-15T21:38:04.048Z,27.30
2019-02-15T21:40:32.502Z,29.02
2019-02-15T21:43:00.930Z,26.20
2019-02-15T21:45:29.394Z,28.38
2019-02-15T21:47:57.830Z,23.27
2019-02-15T21:50:26.289Z,21.85
2019-02-15T21:52:54.731Z,29.82
2019-02-15T21:55:23.249Z,22.93
2019-02-15T21:58:00.796Z,22.55
2019-02-15T22:00:26.567Z,25.15
2019-02-15T22:02:55.107Z,23.83
2019-02-15T22:05:23.562Z,26.12
2019-02-15T22:07:51.988Z,42.03
2019-02-15T22:10:20.433Z,23.77
2019-02-15T22:12:48.894Z,22.00
2019-02-15T22:15:17.894Z,28.57
2019-02-15T22:17:46.370Z,27.82
2019-02-15T22:20:26.349Z,28.15
2019-02-15T22:22:48.437Z,22.25
2019-02-15T22:25:16.850Z,23.38
2019-02-15T22:27:45.387Z,25.08
2019-02-15T22:30:15.484Z,21.77
2019-02-15T22:32:43.962Z,27.25
2019-02-15T22:35:12.534Z,25.65
2019-02-15T22:37:41.019Z,25.40
2019-02-15T22:40:29.876Z,21.30
2019-02-15T22:43:01.426Z,26.85
2019-02-15T22:45:29.886Z,25.92
2019-02-15T22:47:58.335Z,22.90
2019-02-15T22:50:35.382Z,25.20
2019-02-15T22:52:57.230Z,27.55
2019-02-15T22:55:25.814Z,24.45
2019-02-15T22:57:54.266Z,22.77
2019-02-15T23:00:47.236Z,21.93
2019-02-15T23:03:17.253Z,28.20
2019-02-15T23:05:47.487Z,28.00
2019-02-15T23:08:17.080Z,29.55
2019-02-15T23:10:45.701Z,23.60
2019-02-15T23:13:14.287Z,24.82
2019-02-15T23:15:42.765Z,24.18
2019-02-15T23:18:11.281Z,24.77
2019-02-15T23:20:45.215Z,26.77
2019-02-15T23:23:09.902Z,23.62
2019-02-15T23:25:38.346Z,24.47
2019-02-15T23:28:06.797Z,24.37
2019-02-15T23:30:35.239Z,21.30
2019-02-15T23:33:03.751Z,20.80
2019-02-15T23:35:32.214Z,25.80
2019-02-15T23:38:00.670Z,25.60
2019-02-15T23:40:29.126Z,25.92
2019-02-15T23:42:57.587Z,27.30
2019-02-15T23:45:26.090Z,21.80
2019-02-15T23:47:54.619Z,17.67
2019-02-15T23:50:23.067Z,21.10
2019-02-15T23:52:51.561Z,20.25
2019-02-15T23:55:20.018Z,28.98
2019-02-15T23:57:48.432Z,19.00
